createdAt,value
2018-04-14T00:02:24.534Z,2.40
2018-04-14T00:04:52.654Z,2.30
2018-04-14T00:07:20.785Z,1.90
2018-04-14T00:09:48.919Z,1.90
2018-04-14T00:12:16.999Z,2.60
2018-04-14T00:14:45.129Z,2.00
2018-04-14T00:17:13.239Z,2.13
2018-04-14T00:19:41.357Z,2.70
2018-04-14T00:22:09.490Z,2.10
2018-04-14T00:24:37.590Z,2.20
2018-04-14T00:27:05.785Z,2.60
2018-04-14T00:29:33.961Z,2.50
2018-04-14T00:32:02.090Z,2.50
2018-04-14T00:34:30.206Z,2.57
2018-04-14T00:36:58.343Z,4.30
2018-04-14T00:39:26.447Z,4.17
2018-04-14T00:41:54.572Z,3.97
2018-04-14T00:44:22.687Z,3.77
2018-04-14T00:46:50.799Z,4.05
2018-04-14T00:49:18.907Z,4.22
2018-04-14T00:51:47.049Z,4.27
2018-04-14T00:54:15.169Z,4.30
2018-04-14T00:56:43.281Z,3.65
2018-04-14T00:59:11.419Z,4.30
2018-04-14T01:01:39.515Z,4.00
2018-04-14T01:04:07.644Z,3.67
2018-04-14T01:06:35.806Z,3.57
2018-04-14T01:09:03.925Z,3.67
2018-04-14T01:11:32.029Z,3.97
2018-04-14T01:14:00.168Z,3.20
2018-04-14T01:16:28.286Z,3.90
2018-04-14T01:18:56.410Z,3.47
2018-04-14T01:21:24.565Z,3.90
2018-04-14T01:23:52.689Z,3.10
2018-04-14T01:26:20.815Z,3.70
2018-04-14T01:28:48.940Z,2.80
2018-04-14T01:31:17.061Z,3.37
2018-04-14T01:33:45.164Z,3.07
2018-04-14T01:36:13.312Z,2.73
2018-04-14T01:38:41.422Z,3.00
2018-04-14T01:41:09.842Z,3.10
2018-04-14T01:43:37.959Z,2.83
2018-04-14T01:46:06.063Z,3.00
2018-04-14T01:48:34.184Z,2.70
2018-04-14T01:51:02.331Z,2.87
2018-04-14T01:53:30.461Z,2.97
2018-04-14T01:55:58.562Z,2.77
2018-04-14T01:58:26.707Z,2.30
2018-04-14T02:00:54.824Z,3.20
2018-04-14T02:03:22.967Z,2.77
2018-04-14T02:05:51.074Z,3.13
2018-04-14T02:08:19.206Z,3.30
2018-04-14T02:10:47.342Z,2.67
2018-04-14T02:13:15.538Z,2.53
2018-04-14T02:15:43.641Z,2.60
2018-04-14T02:18:11.793Z,2.40
2018-04-14T02:20:39.909Z,2.37
2018-04-14T02:23:08.021Z,2.23
2018-04-14T02:25:36.154Z,2.30
2018-04-14T02:28:04.275Z,2.27
2018-04-14T02:30:32.424Z,2.10
2018-04-14T02:33:00.512Z,2.90
2018-04-14T02:35:28.654Z,2.70
2018-04-14T02:37:56.759Z,2.50
2018-04-14T02:40:24.871Z,2.00
2018-04-14T02:42:53.010Z,2.30
2018-04-14T02:45:21.111Z,2.22
2018-04-14T02:47:49.241Z,2.73
2018-04-14T02:50:17.386Z,2.00
2018-04-14T02:52:45.501Z,2.13
2018-04-14T02:55:13.689Z,1.83
2018-04-14T02:57:41.804Z,2.40
2018-04-14T03:00:09.911Z,3.20
2018-04-14T03:02:38.011Z,2.50
2018-04-14T03:05:06.299Z,2.53
2018-04-14T03:07:34.495Z,1.80
2018-04-14T03:10:02.614Z,2.35
2018-04-14T03:12:30.757Z,2.10
2018-04-14T03:14:58.863Z,2.00
2018-04-14T03:17:26.991Z,2.37
2018-04-14T03:19:55.110Z,1.83
2018-04-14T03:22:23.230Z,1.83
2018-04-14T03:24:51.370Z,2.40
2018-04-14T03:27:19.493Z,1.80
2018-04-14T03:29:47.599Z,2.33
2018-04-14T03:32:15.699Z,2.10
2018-04-14T03:34:43.856Z,2.30
2018-04-14T03:37:11.979Z,1.70
2018-04-14T03:39:40.093Z,1.87
2018-04-14T03:42:08.221Z,5.00
2018-04-14T03:44:36.341Z,2.60
2018-04-14T03:47:04.499Z,2.20
2018-04-14T03:49:32.638Z,1.90
2018-04-14T03:52:00.758Z,2.20
2018-04-14T03:54:28.866Z,2.50
2018-04-14T03:56:56.981Z,2.47
2018-04-14T03:59:25.139Z,2.40
2018-04-14T04:01:53.271Z,2.33
2018-04-14T04:04:21.398Z,1.80
2018-04-14T04:06:49.522Z,2.25
2018-04-14T04:09:17.647Z,2.25
2018-04-14T04:11:45.772Z,2.03
2018-04-14T04:14:14.377Z,1.90
2018-04-14T04:16:42.500Z,1.87
2018-04-14T04:19:22.344Z,2.53
2018-04-14T04:22:02.302Z,2.90
2018-04-14T04:24:42.305Z,2.90
2018-04-14T04:27:10.406Z,2.77
2018-04-14T04:29:38.572Z,3.00
2018-04-14T04:32:06.714Z,3.30
2018-04-14T04:34:34.839Z,4.37
2018-04-14T04:37:02.942Z,3.87
2018-04-14T04:39:31.166Z,3.07
2018-04-14T04:41:59.300Z,3.13
2018-04-14T04:44:27.410Z,2.83
2018-04-14T04:46:55.625Z,2.67
2018-04-14T04:49:23.745Z,2.50
2018-04-14T04:51:51.887Z,2.90
2018-04-14T04:54:20.015Z,2.80
2018-04-14T04:56:48.171Z,2.70
2018-04-14T04:59:16.289Z,2.67
2018-04-14T05:01:44.418Z,2.73
2018-04-14T05:04:12.538Z,2.20
2018-04-14T05:06:40.655Z,2.50
2018-04-14T05:09:08.780Z,2.50
2018-04-14T05:11:36.922Z,2.37
2018-04-14T05:14:05.017Z,2.30
2018-04-14T05:16:33.145Z,3.70
2018-04-14T05:19:01.277Z,3.57
2018-04-14T05:21:29.389Z,5.50
2018-04-14T05:23:57.522Z,5.10
2018-04-14T05:26:25.649Z,5.33
2018-04-14T05:28:53.870Z,4.40
2018-04-14T05:31:22.158Z,4.60
2018-04-14T05:33:50.355Z,5.20
2018-04-14T05:36:18.472Z,4.83
2018-04-14T05:38:46.602Z,4.73
2018-04-14T05:41:14.705Z,5.03
2018-04-14T05:43:42.828Z,5.50
2018-04-14T05:46:10.957Z,5.63
2018-04-14T05:48:39.066Z,4.23
2018-04-14T05:51:08.114Z,5.03
2018-04-14T05:53:36.248Z,5.00
2018-04-14T05:56:04.408Z,5.03
2018-04-14T05:58:32.517Z,5.83
2018-04-14T06:01:00.618Z,5.07
2018-04-14T06:03:36.570Z,4.80
2018-04-14T06:06:04.746Z,5.30
2018-04-14T06:08:32.864Z,4.40
2018-04-14T06:11:00.971Z,5.40
2018-04-14T06:13:29.122Z,4.50
2018-04-14T06:15:57.235Z,4.87
2018-04-14T06:18:25.591Z,5.00
2018-04-14T06:20:53.751Z,5.80
2018-04-14T06:23:21.888Z,4.70
2018-04-14T06:25:50.008Z,5.33
2018-04-14T06:28:18.234Z,4.90
2018-04-14T06:30:52.989Z,5.43
2018-04-14T06:33:21.213Z,4.40
2018-04-14T06:35:49.372Z,4.70
2018-04-14T06:38:17.561Z,5.17
2018-04-14T06:40:45.706Z,5.03
2018-04-14T06:43:13.828Z,4.50
2018-04-14T06:45:41.948Z,4.50
2018-04-14T06:48:10.120Z,4.50
2018-04-14T06:50:38.275Z,4.60
2018-04-14T06:53:06.500Z,3.80
2018-04-14T06:55:34.627Z,3.90
2018-04-14T06:58:02.743Z,4.10
2018-04-14T07:00:30.851Z,3.70
2018-04-14T07:02:59.010Z,3.60
2018-04-14T07:05:27.154Z,3.60
2018-04-14T07:07:55.262Z,3.50
2018-04-14T07:10:23.553Z,3.10
2018-04-14T07:12:51.673Z,3.87
2018-04-14T07:15:19.823Z,4.30
2018-04-14T07:17:48.243Z,4.10
2018-04-14T07:20:16.384Z,4.83
2018-04-14T07:22:44.539Z,4.40
2018-04-14T07:25:12.762Z,4.03
2018-04-14T07:27:40.874Z,3.80
2018-04-14T07:30:08.979Z,3.80
2018-04-14T07:32:37.112Z,3.80
2018-04-14T07:35:05.274Z,3.60
2018-04-14T07:37:33.447Z,4.90
2018-04-14T07:40:01.570Z,5.43
2018-04-14T07:42:29.691Z,5.60
2018-04-14T07:44:57.802Z,5.20
2018-04-14T07:47:25.955Z,5.93
2018-04-14T07:49:54.098Z,5.78
2018-04-14T07:52:22.261Z,5.93
2018-04-14T07:54:50.397Z,7.23
2018-04-14T07:57:18.494Z,7.68
2018-04-14T07:59:46.603Z,7.30
2018-04-14T08:02:14.776Z,7.47
2018-04-14T08:04:42.885Z,8.07
2018-04-14T08:07:11.027Z,7.03
2018-04-14T08:09:39.153Z,6.60
2018-04-14T08:12:07.292Z,6.43
2018-04-14T08:14:35.415Z,6.57
2018-04-14T08:17:03.542Z,6.77
2018-04-14T08:19:31.698Z,7.50
2018-04-14T08:21:59.912Z,6.55
2018-04-14T08:24:28.102Z,7.10
2018-04-14T08:26:56.216Z,7.27
2018-04-14T08:29:24.328Z,6.68
2018-04-14T08:31:52.481Z,7.97
2018-04-14T08:34:20.602Z,7.53
2018-04-14T08:36:48.776Z,7.00
2018-04-14T08:39:16.924Z,6.50
2018-04-14T08:41:45.057Z,7.43
2018-04-14T08:44:13.168Z,7.13
2018-04-14T08:46:41.300Z,6.70
2018-04-14T08:49:09.428Z,5.80
2018-04-14T08:51:37.577Z,5.37
2018-04-14T08:54:05.703Z,5.17
2018-04-14T08:56:34.523Z,5.53
2018-04-14T08:59:02.653Z,4.37
2018-04-14T09:01:30.861Z,4.90
2018-04-14T09:03:58.969Z,3.97
2018-04-14T09:06:27.125Z,4.30
2018-04-14T09:08:55.271Z,5.35
2018-04-14T09:11:23.415Z,4.85
2018-04-14T09:13:51.607Z,4.90
2018-04-14T09:16:19.741Z,3.87
2018-04-14T09:18:47.879Z,4.10
2018-04-14T09:21:15.996Z,3.20
2018-04-14T09:23:44.137Z,2.63
2018-04-14T09:26:12.316Z,2.97
2018-04-14T09:28:40.446Z,1.80
2018-04-14T09:31:08.594Z,1.90
2018-04-14T09:33:36.726Z,1.97
2018-04-14T09:36:05.713Z,2.10
2018-04-14T09:38:33.928Z,1.90
2018-04-14T09:41:02.044Z,2.20
2018-04-14T09:43:30.581Z,2.00
2018-04-14T09:45:58.711Z,1.63
2018-04-14T09:48:26.837Z,1.23
2018-04-14T09:50:54.992Z,1.30
2018-04-14T09:53:23.118Z,1.35
2018-04-14T09:55:51.674Z,0.80
2018-04-14T09:58:19.809Z,0.90
2018-04-14T10:00:55.146Z,0.80
2018-04-14T10:03:23.260Z,0.70
2018-04-14T10:05:51.386Z,0.60
2018-04-14T10:08:19.519Z,1.00
2018-04-14T10:10:47.660Z,1.50
2018-04-14T10:13:15.813Z,0.87
2018-04-14T10:15:44.079Z,0.90
2018-04-14T10:18:12.205Z,0.83
2018-04-14T10:20:41.205Z,0.50
2018-04-14T10:23:10.023Z,0.90
2018-04-14T10:25:39.064Z,0.80
2018-04-14T10:28:07.199Z,1.00
2018-04-14T10:30:35.441Z,1.30
2018-04-14T10:33:04.478Z,0.80
2018-04-14T10:35:33.135Z,0.80
2018-04-14T10:38:01.421Z,1.10
2018-04-14T10:40:30.592Z,0.80
2018-04-14T10:42:58.759Z,0.77
2018-04-14T10:45:26.913Z,1.35
2018-04-14T10:47:55.026Z,0.90
2018-04-14T10:50:23.184Z,1.00
2018-04-14T10:52:52.191Z,1.10
2018-04-14T10:55:20.331Z,0.70
2018-04-14T10:57:48.471Z,1.17
2018-04-14T11:00:16.588Z,0.70
2018-04-14T11:02:44.722Z,1.07
2018-04-14T11:05:12.858Z,0.90
2018-04-14T11:07:40.998Z,0.90
2018-04-14T11:10:09.229Z,1.00
2018-04-14T11:12:37.995Z,1.00
2018-04-14T11:15:06.234Z,1.37
2018-04-14T11:17:34.357Z,1.07
2018-04-14T11:20:02.481Z,1.00
2018-04-14T11:22:30.629Z,1.93
2018-04-14T11:24:58.756Z,1.20
2018-04-14T11:27:26.935Z,1.33
2018-04-14T11:29:55.095Z,2.83
2018-04-14T11:32:23.222Z,1.23
2018-04-14T11:34:51.425Z,1.17
2018-04-14T11:37:19.567Z,1.75
2018-04-14T11:39:47.719Z,1.13
2018-04-14T11:42:15.840Z,1.10
2018-04-14T11:44:44.203Z,1.20
2018-04-14T11:47:12.388Z,1.30
2018-04-14T11:49:40.555Z,0.80
2018-04-14T11:52:08.703Z,1.00
2018-04-14T11:54:36.827Z,1.63
2018-04-14T11:57:04.967Z,0.80
2018-04-14T11:59:33.272Z,1.00
2018-04-14T12:02:04.656Z,0.97
2018-04-14T12:04:35.006Z,0.97
2018-04-14T12:07:03.225Z,1.10
2018-04-14T12:09:31.360Z,1.50
2018-04-14T12:11:59.539Z,1.00
2018-04-14T12:14:27.683Z,1.13
2018-04-14T12:16:55.829Z,1.10
2018-04-14T12:19:23.951Z,1.33
2018-04-14T12:21:52.247Z,0.90
2018-04-14T12:24:20.372Z,0.80
2018-04-14T12:26:48.501Z,1.10
2018-04-14T12:29:16.633Z,1.02
2018-04-14T12:31:44.798Z,1.42
2018-04-14T12:34:14.001Z,0.93
2018-04-14T12:36:42.649Z,0.87
2018-04-14T12:39:10.773Z,0.80
2018-04-14T12:41:38.971Z,1.07
2018-04-14T12:44:07.123Z,0.80
2018-04-14T12:46:35.294Z,0.83
2018-04-14T12:49:03.461Z,1.33
2018-04-14T12:51:31.585Z,0.93
2018-04-14T12:53:59.701Z,0.90
2018-04-14T12:56:27.818Z,0.67
2018-04-14T12:58:55.960Z,0.90
2018-04-14T13:01:24.106Z,1.00
2018-04-14T13:03:52.232Z,0.80
2018-04-14T13:06:20.371Z,0.90
2018-04-14T13:08:48.495Z,1.10
2018-04-14T13:11:18.570Z,0.73
2018-04-14T13:13:46.810Z,0.70
2018-04-14T13:16:14.940Z,0.83
2018-04-14T13:18:44.362Z,0.70
2018-04-14T13:21:12.543Z,0.73
2018-04-14T19:14:48.769Z,1.63
2018-04-14T19:17:16.943Z,1.60
2018-04-14T19:19:45.152Z,1.50
2018-04-14T19:22:13.296Z,1.40
2018-04-14T19:24:41.493Z,1.30
2018-04-14T19:27:09.628Z,1.40
2018-04-14T19:29:37.752Z,1.70
2018-04-14T19:32:06.136Z,1.70
2018-04-14T19:34:34.747Z,1.30
2018-04-14T19:37:03.534Z,2.13
2018-04-14T19:39:31.877Z,1.80
2018-04-14T19:42:01.785Z,1.80
2018-04-14T19:44:30.181Z,1.67
2018-04-14T19:46:58.282Z,1.70
2018-04-14T19:49:26.398Z,1.67
2018-04-14T19:51:54.672Z,1.60
2018-04-14T19:54:22.793Z,1.47
2018-04-14T19:56:50.934Z,1.60
2018-04-14T19:59:19.899Z,1.63
2018-04-14T20:01:48.379Z,1.80
2018-04-14T20:04:16.719Z,1.50
2018-04-14T20:06:44.889Z,1.40
2018-04-14T20:09:13.023Z,1.70
2018-04-14T20:11:41.132Z,1.50
2018-04-14T20:14:09.260Z,1.60
2018-04-14T20:16:38.959Z,2.07
2018-04-14T20:19:07.110Z,1.50
2018-04-14T20:21:35.395Z,1.47
2018-04-14T20:24:03.514Z,1.77
2018-04-14T20:26:31.658Z,1.70
2018-04-14T20:28:59.816Z,1.40
2018-04-14T20:31:27.941Z,1.87
2018-04-14T20:33:56.122Z,1.87
2018-04-14T20:36:24.270Z,8.57
2018-04-14T20:38:52.384Z,2.40
2018-04-14T20:41:20.500Z,3.40
2018-04-14T20:43:48.667Z,3.90
2018-04-14T20:46:16.787Z,2.10
2018-04-14T20:48:44.902Z,1.60
2018-04-14T20:51:13.384Z,1.83
2018-04-14T20:53:41.503Z,1.97
2018-04-14T20:56:09.626Z,3.43
2018-04-14T20:58:37.985Z,2.20
2018-04-14T21:01:06.091Z,2.10
2018-04-14T21:03:34.204Z,1.60
2018-04-14T21:06:02.355Z,1.70
2018-04-14T21:08:30.469Z,1.80
2018-04-14T21:10:58.723Z,1.73
2018-04-14T21:13:26.875Z,2.07
2018-04-14T21:15:54.989Z,2.20
2018-04-14T21:18:23.102Z,2.00
2018-04-14T21:20:51.251Z,2.10
2018-04-14T21:23:19.373Z,2.37
2018-04-14T21:25:47.507Z,4.07
2018-04-14T21:28:15.663Z,3.20
2018-04-14T21:30:43.768Z,2.40
2018-04-14T21:33:11.891Z,1.70
2018-04-14T21:35:40.073Z,2.83
2018-04-14T21:38:08.187Z,3.00
2018-04-14T21:40:36.315Z,3.27
2018-04-14T21:43:04.467Z,2.20
2018-04-14T21:45:32.589Z,2.00
2018-04-14T21:48:00.714Z,2.10
2018-04-14T21:50:28.847Z,2.37
2018-04-14T21:52:56.966Z,2.03
2018-04-14T21:55:25.098Z,2.50
2018-04-14T21:57:53.362Z,1.97
2018-04-14T22:00:21.477Z,1.73
2018-04-14T22:02:49.582Z,2.43
2018-04-14T22:05:17.746Z,2.03
2018-04-14T22:07:45.867Z,1.90
2018-04-14T22:10:13.985Z,2.30
2018-04-14T22:12:42.136Z,3.47
2018-04-14T22:15:10.250Z,2.40
2018-04-14T22:17:38.366Z,2.30
2018-04-14T22:20:06.534Z,2.53
2018-04-14T22:22:34.821Z,2.80
2018-04-14T22:25:02.953Z,2.40
2018-04-14T22:27:31.100Z,2.70
2018-04-14T22:29:59.219Z,2.57
2018-04-14T22:32:28.226Z,2.30
2018-04-14T22:34:56.359Z,2.50
2018-04-14T22:37:24.483Z,2.00
2018-04-14T22:39:52.611Z,2.20
2018-04-14T22:42:23.780Z,2.33
2018-04-14T22:44:51.891Z,2.17
2018-04-14T22:47:19.997Z,2.47
2018-04-14T22:49:48.142Z,3.00
2018-04-14T22:52:16.258Z,3.20
2018-04-14T22:54:44.372Z,3.33
2018-04-14T22:57:12.531Z,2.57
2018-04-14T22:59:40.636Z,3.07
2018-04-14T23:02:08.759Z,3.00
2018-04-14T23:04:36.950Z,3.03
2018-04-14T23:07:05.088Z,4.30
2018-04-14T23:09:33.248Z,2.83
2018-04-14T23:12:01.378Z,2.83
2018-04-14T23:14:29.506Z,2.60
2018-04-14T23:16:57.614Z,3.20
2018-04-14T23:19:25.782Z,2.70
2018-04-14T23:21:53.894Z,2.60
2018-04-14T23:24:22.167Z,2.40
2018-04-14T23:26:50.312Z,2.77
2018-04-14T23:29:18.417Z,2.90
2018-04-14T23:31:46.531Z,2.40
2018-04-14T23:34:14.663Z,3.10
2018-04-14T23:36:42.779Z,2.87
2018-04-14T23:39:10.913Z,2.40
2018-04-14T23:41:39.043Z,3.20
2018-04-14T23:44:07.156Z,3.23
2018-04-14T23:46:35.263Z,3.10
2018-04-14T23:49:03.407Z,3.00
2018-04-14T23:51:31.532Z,2.80
2018-04-14T23:53:59.661Z,3.10
2018-04-14T23:56:28.968Z,2.90
2018-04-14T23:58:57.083Z,3.30
